Mooresburg, TN (37811)

5:56 AM EDT on May 30, 2015 (GMT -0400)
Adams Grocery | | Change Station
CLOSE
Current Station
Personal Weather Station
Location: Mooresburg, TN
Elevation: 1230 ft
Nearby Weather Stations

Elev 1230 ft 36.40 °N, 83.23 °W | Updated 40 seconds ago

Fog
Fog
57.2 °F
Feels Like 57.2 °F
N
0.0
Wind Variable Wind from SW
Gusts 1.6 mph

Today
High -- | Low -- °F
--% Chance of Precip.
Yesterday
High -- | Low -- °F
Precip. -- in
6:17 AM 8:43 PM
Waxing Gibbous, 89% visible
Pressure 30.20 in
Visibility 0.2 miles
Clouds Overcast 200 ft
Dew Point 57 °F
Humidity 99%
Rainfall 0.00 in
Snow Depth Not available.
UV 0 out of 12
Pollen 6.50 out of 12
Air Quality Not available.
Flu Activity Sporadic
METAR K0VG 300935Z AUTO 00000KT M1/4SM FG OVC002 16/16 A3020 RMK AO2

More Conditions Fewer Conditions

Pressure 30.20 in
Visibility 0.2 miles
Clouds Overcast 200 ft
Dew Point 57 °F
Humidity 99%
Rainfall 0.00 in
Snow Depth Not available.
UV 0 out of 12
Pollen 6.50 out of 12
Air Quality Not available.
Flu Activity Sporadic
METAR K0VG 300935Z AUTO 00000KT M1/4SM FG OVC002 16/16 A3020 RMK AO2

More Conditions Fewer Conditions

10-Day Weather Forecast

Almanac

Astronomy

May. 30, 2015 Rise Set
Actual Time
Civil Twilight
Nautical Twilight
Astronomical Twilight
Moon
Length of Visible Light
Length of Day
Tomorrow will be .
, % of the Moon is Illuminated

Today's Extremes

State Highs State Lows

Community

WunderPhotos

Upload Photos

1,825,476 photos uploaded!

WunderBlogs® & News

Nearby

Air Quality

  Air Quality AQ Index Pollutant
Not available.

Snow Depth

Station Depth Elevation

Earthquake Activity

City Distance Mag. Time & Date
Minimum magnitude displayed is 2.5.

Coastal Water Temperatures

Place Temperature

Stations

Nearby Weather Stations

Station Location Temp. Windchill Dew Point Humidity Wind Precip. Elev Updated Type